Mooresville, North Carolina
Current Conditions -  °F | °C
As of 11:54 AM on Tuesday 21 Oct 2014 (Local Time) from KJQF Reporting Station
Clear Clear  
Wind Chill: 72°   Ceiling: Unl
Heat Index: 72°   Visibility: 10mi
Dew Point: 48°   Wind: 7mph
Humidity: 43%   Direction: 270°W
Pressure: 29.97"   Gusts: NA
Location:  35.58°N, 80.81°W
Report Text: KJQF 211554Z 27006KT ` 10SM CLR 22/09 A2997
Loading
Personal Weather Stations






























Interactive Weather Map New forecast layout! Learn more

10-Day Weather Forecast

Advertisements
Track Severe Weather on mobile